Algowood — VCTD — position and weather

sailwx.info

Track history (hours):
 
Tides and Currents Weather Stations Pressure Air Temp Water Temp Dewpoint Dewpoint Depression Visibility Wind Speed Wind Dir Waves Ship Positions

Algowood

Last reported at 2015-Aug-04 09:31 UTC. Time now 2015-Aug-04 09:42 UTC.
Position N 46°34' W 072°06'.

Length 223 m; draft 8.1 m.

Type: Cargo ship. MMSI: 316001802.

Date/timePositionNaut miles runAvg speedWind from/ knotsBaromVisibWave heightAir tempDewpointWater temp
2015-Aug-04 09:31N 46°34' W 072°06'1212.8
2015-Aug-04 08:33N 46°26' W 072°20'3 2.5
2015-Aug-04 07:28N 46°24' W 072°23'0 0.0
2015-Aug-04 06:28N 46°24' W 072°23'0 0.0
2015-Aug-04 05:29N 46°24' W 072°23'0 0.0
2015-Aug-04 04:28N 46°24' W 072°23'0 0.0
2015-Aug-04 03:28N 46°24' W 072°23'0 0.0
2015-Aug-04 02:28N 46°24' W 072°23'0 0.0
2015-Aug-04 01:28N 46°24' W 072°23'0 0.0
2015-Aug-04 00:28N 46°24' W 072°23'0 0.0
2015-Aug-03 23:29N 46°24' W 072°23'0 0.0
2015-Aug-03 22:29N 46°24' W 072°23'0 0.0
2015-Aug-03 21:29N 46°24' W 072°23'0 0.0
2015-Aug-03 20:28N 46°24' W 072°23'0 0.0
2015-Aug-03 19:28N 46°24' W 072°23'0 0.0
2015-Aug-03 18:28N 46°24' W 072°23'0 0.0
2015-Aug-03 17:28N 46°24' W 072°23'0 0.0
2015-Aug-03 16:33N 46°24' W 072°23'0 0.0
2015-Aug-03 15:27N 46°24' W 072°23'0 0.0
2015-Aug-03 14:33N 46°24' W 072°23'0 0.0
2015-Aug-03 13:33N 46°24' W 072°23'0 0.0
2015-Aug-03 12:33N 46°24' W 072°23'0 0.0
2015-Aug-03 11:33N 46°24' W 072°23'0 0.0
2015-Aug-03 10:27N 46°24' W 072°23'0 0.0
2015-Aug-03 09:33N 46°24' W 072°23'0 0.0
2015-Aug-03 08:33N 46°24' W 072°23'0 0.0
2015-Aug-03 07:33N 46°24' W 072°23'0 0.0
2015-Aug-03 06:33N 46°24' W 072°23'0 0.0
2015-Aug-03 05:33N 46°24' W 072°23'0 0.0
2015-Aug-03 04:33N 46°24' W 072°23'0 0.0
2015-Aug-03 03:33N 46°24' W 072°23'0 0.3
2015-Aug-03 02:33N 46°24' W 072°23'8 8.5
2015-Aug-03 01:33N 46°20' W 072°33'1010.5
2015-Aug-03 00:33N 46°14' W 072°46'1212.0
2015-Aug-02 23:32N 46°06' W 072°59'43 9.7
2015-Aug-02 19:08N 45°30' W 073°31'1 2.3
2015-Aug-02 18:32N 45°28' W 073°30'4 4.6
2015-Aug-02 17:34N 45°24' W 073°34'2 1.6
2015-Aug-02 16:33N 45°24' W 073°36'6 5.8
2015-Aug-02 15:31N 45°24' W 073°45'9 9.4
2015-Aug-02 14:34N 45°19' W 073°55'1 0.9
2015-Aug-02 13:34N 45°18' W 073°56'0 0.2
2015-Aug-02 12:33N 45°18' W 073°56'4 4.3
2015-Aug-02 11:31N 45°14' W 073°59'121 8.6
2015-Aug-01 21:30N 44°08' W 076°22'1 0.7
2015-Aug-01 20:33N 44°08' W 076°21'4 4.3
2015-Aug-01 19:33N 44°05' W 076°25'11311.1
2015-Aug-01 09:21N 43°23' W 078°51'912.1
2015-Aug-01 08:33N 43°20' W 079°03'9 9.5
2015-Aug-01 07:34N 43°14' W 079°13'1 1.3
2015-Aug-01 06:34N 43°13' W 079°13'1 1.3
2015-Aug-01 05:34N 43°11' W 079°12'2 2.2
2015-Aug-01 04:34N 43°09' W 079°12'0 0.0
2015-Aug-01 03:34N 43°09' W 079°12'1 1.1
2015-Aug-01 02:33N 43°08' W 079°12'0 0.3
2015-Aug-01 01:33N 43°08' W 079°12'1 0.5
2015-Aug-01 00:34N 43°07' W 079°12'1 1.2
2015-Jul-31 23:34N 43°06' W 079°12'5 5.5
2015-Jul-31 22:34N 43°01' W 079°13'8 3.8
2015-Jul-31 20:26N 42°53' W 079°15'16 3.7
2015-Jul-31 16:10N 42°42' W 079°30'711.8
2015-Jul-31 15:32N 42°37' W 079°39'1211.9
2015-Jul-31 14:32N 42°30' W 079°52'1411.6
2015-Jul-31 13:22N 42°24' W 080°08'259 7.0
2015-Jul-30 00:28N 45°51' W 083°45'1010.7
2015-Jul-29 23:33N 45°58' W 083°53'39 5.5
2015-Jul-29 16:31N 46°27' W 084°32'1010.8
2015-Jul-29 15:33N 46°34' W 084°42'  
2015-Jul-26 17:24N 47°01' W 091°28'1011.9
2015-Jul-26 16:33N 46°56' W 091°40'1212.3
2015-Jul-26 15:33N 46°50' W 091°56'8 7.8
2015-Jul-26 14:34N 46°47' W 092°06'0 0.1
2015-Jul-26 13:33N 46°46' W 092°06'0 0.0
2015-Jul-26 12:33N 46°46' W 092°06'0 0.0
2015-Jul-26 11:34N 46°46' W 092°06'0 0.0
2015-Jul-26 10:33N 46°46' W 092°06'0 0.0
2015-Jul-26 09:33N 46°46' W 092°06'0 0.0
2015-Jul-26 08:34N 46°46' W 092°06'0 0.0
2015-Jul-26 07:33N 46°46' W 092°06'0 0.0
2015-Jul-26 06:33N 46°46' W 092°06'0 0.0
2015-Jul-26 05:33N 46°46' W 092°06'0 0.0
2015-Jul-26 04:33N 46°46' W 092°06'1 1.5
2015-Jul-26 03:33N 46°47' W 092°04'8 8.4
2015-Jul-26 02:33N 46°50' W 091°53'1110.9
2015-Jul-26 01:33N 46°54' W 091°38'  
Track history (hours):
 
Tides and Currents Weather Stations Pressure Air Temp Water Temp Dewpoint Dewpoint Depression Visibility Wind Speed Wind Dir Waves Ship Positions

Algowood

Last reported at 2015-Aug-04 09:31 UTC. Time now 2015-Aug-04 09:42 UTC.
Position N 46°34' W 072°06'.

Length 223 m; draft 8.1 m.

Type: Cargo ship. MMSI: 316001802.

Date/timePositionNaut miles runAvg speedWind from/ knotsBaromVisibWave heightAir tempDewpointWater temp
2015-Aug-04 09:31N 46°34' W 072°06'1212.8
2015-Aug-04 08:33N 46°26' W 072°20'3 2.5
2015-Aug-04 07:28N 46°24' W 072°23'0 0.0
2015-Aug-04 06:28N 46°24' W 072°23'0 0.0
2015-Aug-04 05:29N 46°24' W 072°23'0 0.0
2015-Aug-04 04:28N 46°24' W 072°23'0 0.0
2015-Aug-04 03:28N 46°24' W 072°23'0 0.0
2015-Aug-04 02:28N 46°24' W 072°23'0 0.0
2015-Aug-04 01:28N 46°24' W 072°23'0 0.0
2015-Aug-04 00:28N 46°24' W 072°23'0 0.0
2015-Aug-03 23:29N 46°24' W 072°23'0 0.0
2015-Aug-03 22:29N 46°24' W 072°23'0 0.0
2015-Aug-03 21:29N 46°24' W 072°23'0 0.0
2015-Aug-03 20:28N 46°24' W 072°23'0 0.0
2015-Aug-03 19:28N 46°24' W 072°23'0 0.0
2015-Aug-03 18:28N 46°24' W 072°23'0 0.0
2015-Aug-03 17:28N 46°24' W 072°23'0 0.0
2015-Aug-03 16:33N 46°24' W 072°23'0 0.0
2015-Aug-03 15:27N 46°24' W 072°23'0 0.0
2015-Aug-03 14:33N 46°24' W 072°23'0 0.0
2015-Aug-03 13:33N 46°24' W 072°23'0 0.0
2015-Aug-03 12:33N 46°24' W 072°23'0 0.0
2015-Aug-03 11:33N 46°24' W 072°23'0 0.0
2015-Aug-03 10:27N 46°24' W 072°23'0 0.0
2015-Aug-03 09:33N 46°24' W 072°23'0 0.0
2015-Aug-03 08:33N 46°24' W 072°23'0 0.0
2015-Aug-03 07:33N 46°24' W 072°23'0 0.0
2015-Aug-03 06:33N 46°24' W 072°23'0 0.0
2015-Aug-03 05:33N 46°24' W 072°23'0 0.0
2015-Aug-03 04:33N 46°24' W 072°23'0 0.0
2015-Aug-03 03:33N 46°24' W 072°23'0 0.3
2015-Aug-03 02:33N 46°24' W 072°23'8 8.5
2015-Aug-03 01:33N 46°20' W 072°33'1010.5
2015-Aug-03 00:33N 46°14' W 072°46'1212.0
2015-Aug-02 23:32N 46°06' W 072°59'43 9.7
2015-Aug-02 19:08N 45°30' W 073°31'1 2.3
2015-Aug-02 18:32N 45°28' W 073°30'4 4.6
2015-Aug-02 17:34N 45°24' W 073°34'2 1.6
2015-Aug-02 16:33N 45°24' W 073°36'6 5.8
2015-Aug-02 15:31N 45°24' W 073°45'9 9.4
2015-Aug-02 14:34N 45°19' W 073°55'1 0.9
2015-Aug-02 13:34N 45°18' W 073°56'0 0.2
2015-Aug-02 12:33N 45°18' W 073°56'4 4.3
2015-Aug-02 11:31N 45°14' W 073°59'121 8.6
2015-Aug-01 21:30N 44°08' W 076°22'1 0.7
2015-Aug-01 20:33N 44°08' W 076°21'4 4.3
2015-Aug-01 19:33N 44°05' W 076°25'11311.1
2015-Aug-01 09:21N 43°23' W 078°51'912.1
2015-Aug-01 08:33N 43°20' W 079°03'9 9.5
2015-Aug-01 07:34N 43°14' W 079°13'1 1.3
2015-Aug-01 06:34N 43°13' W 079°13'1 1.3
2015-Aug-01 05:34N 43°11' W 079°12'2 2.2
2015-Aug-01 04:34N 43°09' W 079°12'0 0.0
2015-Aug-01 03:34N 43°09' W 079°12'1 1.1
2015-Aug-01 02:33N 43°08' W 079°12'0 0.3
2015-Aug-01 01:33N 43°08' W 079°12'1 0.5
2015-Aug-01 00:34N 43°07' W 079°12'1 1.2
2015-Jul-31 23:34N 43°06' W 079°12'5 5.5
2015-Jul-31 22:34N 43°01' W 079°13'8 3.8
2015-Jul-31 20:26N 42°53' W 079°15'16 3.7
2015-Jul-31 16:10N 42°42' W 079°30'711.8
2015-Jul-31 15:32N 42°37' W 079°39'1211.9
2015-Jul-31 14:32N 42°30' W 079°52'1411.6
2015-Jul-31 13:22N 42°24' W 080°08'259 7.0
2015-Jul-30 00:28N 45°51' W 083°45'1010.7
2015-Jul-29 23:33N 45°58' W 083°53'39 5.5
2015-Jul-29 16:31N 46°27' W 084°32'1010.8
2015-Jul-29 15:33N 46°34' W 084°42'  
2015-Jul-26 17:24N 47°01' W 091°28'1011.9
2015-Jul-26 16:33N 46°56' W 091°40'1212.3
2015-Jul-26 15:33N 46°50' W 091°56'8 7.8
2015-Jul-26 14:34N 46°47' W 092°06'0 0.1
2015-Jul-26 13:33N 46°46' W 092°06'0 0.0
2015-Jul-26 12:33N 46°46' W 092°06'0 0.0
2015-Jul-26 11:34N 46°46' W 092°06'0 0.0
2015-Jul-26 10:33N 46°46' W 092°06'0 0.0
2015-Jul-26 09:33N 46°46' W 092°06'0 0.0
2015-Jul-26 08:34N 46°46' W 092°06'0 0.0
2015-Jul-26 07:33N 46°46' W 092°06'0 0.0
2015-Jul-26 06:33N 46°46' W 092°06'0 0.0
2015-Jul-26 05:33N 46°46' W 092°06'0 0.0
2015-Jul-26 04:33N 46°46' W 092°06'1 1.5
2015-Jul-26 03:33N 46°47' W 092°04'8 8.4
2015-Jul-26 02:33N 46°50' W 091°53'1110.9
2015-Jul-26 01:33N 46°54' W 091°38'  

Dump ship's entire track history